sensor_id;sensor_type;location;lat;lon;timestamp;pressure;altitude;pressure_sealevel;temperature
15079;BMP180;6932;51.438;5.470;2023-02-01T00:00:12;101679.00;;;11.90
15079;BMP180;6932;51.438;5.470;2023-02-01T00:02:38;101681.00;;;11.90
15079;BMP180;6932;51.438;5.470;2023-02-01T00:05:10;101659.00;;;11.90
15079;BMP180;6932;51.438;5.470;2023-02-01T00:07:37;101660.00;;;11.80
15079;BMP180;6932;51.438;5.470;2023-02-01T00:10:05;101649.00;;;11.80
15079;BMP180;6932;51.438;5.470;2023-02-01T00:12:32;101652.00;;;11.80
15079;BMP180;6932;51.438;5.470;2023-02-01T00:14:58;101654.00;;;11.80
15079;BMP180;6932;51.438;5.470;2023-02-01T00:17:24;101651.00;;;11.80
15079;BMP180;6932;51.438;5.470;2023-02-01T00:19:51;101651.00;;;11.80
15079;BMP180;6932;51.438;5.470;2023-02-01T00:22:16;101642.00;;;11.70
15079;BMP180;6932;51.438;5.470;2023-02-01T00:24:42;101640.00;;;11.70
15079;BMP180;6932;51.438;5.470;2023-02-01T00:27:08;101624.00;;;11.70
15079;BMP180;6932;51.438;5.470;2023-02-01T00:29:33;101618.00;;;11.70
15079;BMP180;6932;51.438;5.470;2023-02-01T00:31:59;101626.00;;;11.70
15079;BMP180;6932;51.438;5.470;2023-02-01T00:34:25;101634.00;;;11.60
15079;BMP180;6932;51.438;5.470;2023-02-01T00:36:51;101640.00;;;11.60
15079;BMP180;6932;51.438;5.470;2023-02-01T00:39:17;101632.00;;;11.60
15079;BMP180;6932;51.438;5.470;2023-02-01T00:41:43;101629.00;;;11.60
15079;BMP180;6932;51.438;5.470;2023-02-01T00:44:09;101620.00;;;11.60
15079;BMP180;6932;51.438;5.470;2023-02-01T00:46:35;101616.00;;;11.60
15079;BMP180;6932;51.438;5.470;2023-02-01T00:49:01;101608.00;;;11.60
15079;BMP180;6932;51.438;5.470;2023-02-01T00:51:28;101631.00;;;11.60
15079;BMP180;6932;51.438;5.470;2023-02-01T00:53:55;101628.00;;;11.50
15079;BMP180;6932;51.438;5.470;2023-02-01T00:56:21;101622.00;;;11.50
15079;BMP180;6932;51.438;5.470;2023-02-01T00:58:47;101629.00;;;11.50
15079;BMP180;6932;51.438;5.470;2023-02-01T01:01:18;101627.00;;;11.50
15079;BMP180;6932;51.438;5.470;2023-02-01T01:03:53;101631.00;;;11.50
15079;BMP180;6932;51.438;5.470;2023-02-01T01:06:29;101639.00;;;11.50
15079;BMP180;6932;51.438;5.470;2023-02-01T01:08:57;101630.00;;;11.40
15079;BMP180;6932;51.438;5.470;2023-02-01T01:11:27;101642.00;;;11.40
15079;BMP180;6932;51.438;5.470;2023-02-01T01:13:58;101651.00;;;11.40
15079;BMP180;6932;51.438;5.470;2023-02-01T01:16:27;101647.00;;;11.40
15079;BMP180;6932;51.438;5.470;2023-02-01T01:18:54;101654.00;;;11.40
15079;BMP180;6932;51.438;5.470;2023-02-01T01:21:20;101656.00;;;11.40
15079;BMP180;6932;51.438;5.470;2023-02-01T01:23:47;101659.00;;;11.30
15079;BMP180;6932;51.438;5.470;2023-02-01T01:26:17;101641.00;;;11.30
15079;BMP180;6932;51.438;5.470;2023-02-01T01:28:44;101636.00;;;11.30
15079;BMP180;6932;51.438;5.470;2023-02-01T01:31:16;101631.00;;;11.30
15079;BMP180;6932;51.438;5.470;2023-02-01T01:33:42;101626.00;;;11.30
15079;BMP180;6932;51.438;5.470;2023-02-01T01:36:10;101632.00;;;11.30
15079;BMP180;6932;51.438;5.470;2023-02-01T01:38:38;101631.00;;;11.30
15079;BMP180;6932;51.438;5.470;2023-02-01T01:41:04;101636.00;;;11.30
15079;BMP180;6932;51.438;5.470;2023-02-01T01:43:55;101626.00;;;11.30
15079;BMP180;6932;51.438;5.470;2023-02-01T01:46:36;101631.00;;;11.20
15079;BMP180;6932;51.438;5.470;2023-02-01T01:49:20;101633.00;;;11.20
15079;BMP180;6932;51.438;5.470;2023-02-01T01:51:55;101639.00;;;11.20
15079;BMP180;6932;51.438;5.470;2023-02-01T01:54:33;101641.00;;;11.20
15079;BMP180;6932;51.438;5.470;2023-02-01T01:57:09;101649.00;;;11.20
15079;BMP180;6932;51.438;5.470;2023-02-01T01:59:40;101647.00;;;11.20
15079;BMP180;6932;51.438;5.470;2023-02-01T02:02:07;101638.00;;;11.20
15079;BMP180;6932;51.438;5.470;2023-02-01T02:04:34;101648.00;;;11.20
15079;BMP180;6932;51.438;5.470;2023-02-01T02:07:17;101651.00;;;11.20
15079;BMP180;6932;51.438;5.470;2023-02-01T02:09:44;101645.00;;;11.10
15079;BMP180;6932;51.438;5.470;2023-02-01T02:12:10;101649.00;;;11.20
15079;BMP180;6932;51.438;5.470;2023-02-01T02:14:36;101643.00;;;11.20
15079;BMP180;6932;51.438;5.470;2023-02-01T02:17:44;101634.00;;;11.10
15079;BMP180;6932;51.438;5.470;2023-02-01T02:32:26;101605.00;;;11.00
15079;BMP180;6932;51.438;5.470;2023-02-01T02:38:39;101595.00;;;11.00
15079;BMP180;6932;51.438;5.470;2023-02-01T02:41:22;101589.00;;;11.10
15079;BMP180;6932;51.438;5.470;2023-02-01T02:44:39;101595.00;;;11.10
15079;BMP180;6932;51.438;5.470;2023-02-01T02:47:44;101595.00;;;11.10
15079;BMP180;6932;51.438;5.470;2023-02-01T02:50:26;101589.00;;;11.10
15079;BMP180;6932;51.438;5.470;2023-02-01T02:56:15;101600.00;;;11.10
15079;BMP180;6932;51.438;5.470;2023-02-01T02:59:03;101598.00;;;11.10
15079;BMP180;6932;51.438;5.470;2023-02-01T03:01:49;101605.00;;;11.10
15079;BMP180;6932;51.438;5.470;2023-02-01T03:04:33;101589.00;;;11.10
15079;BMP180;6932;51.438;5.470;2023-02-01T03:21:41;101584.00;;;11.20
15079;BMP180;6932;51.438;5.470;2023-02-01T03:24:25;101589.00;;;11.20
15079;BMP180;6932;51.438;5.470;2023-02-01T03:27:35;101568.00;;;11.10
15079;BMP180;6932;51.438;5.470;2023-02-01T03:30:11;101585.00;;;11.10
15079;BMP180;6932;51.438;5.470;2023-02-01T03:32:47;101585.00;;;11.10
15079;BMP180;6932;51.438;5.470;2023-02-01T03:35:45;101585.00;;;11.10
15079;BMP180;6932;51.438;5.470;2023-02-01T03:38:32;101592.00;;;11.10
15079;BMP180;6932;51.438;5.470;2023-02-01T03:41:20;101593.00;;;11.10
15079;BMP180;6932;51.438;5.470;2023-02-01T03:46:56;101575.00;;;11.10
15079;BMP180;6932;51.438;5.470;2023-02-01T03:49:45;101574.00;;;11.10
15079;BMP180;6932;51.438;5.470;2023-02-01T03:52:20;101579.00;;;11.10
15079;BMP180;6932;51.438;5.470;2023-02-01T03:54:48;101584.00;;;11.10
15079;BMP180;6932;51.438;5.470;2023-02-01T03:57:23;101582.00;;;11.10
15079;BMP180;6932;51.438;5.470;2023-02-01T03:59:51;101582.00;;;11.10
15079;BMP180;6932;51.438;5.470;2023-02-01T04:02:17;101576.00;;;11.10
15079;BMP180;6932;51.438;5.470;2023-02-01T04:04:43;101573.00;;;11.10
15079;BMP180;6932;51.438;5.470;2023-02-01T04:07:09;101572.00;;;11.10
15079;BMP180;6932;51.438;5.470;2023-02-01T04:09:34;101568.00;;;11.20
15079;BMP180;6932;51.438;5.470;2023-02-01T04:12:00;101572.00;;;11.20
15079;BMP180;6932;51.438;5.470;2023-02-01T04:14:26;101570.00;;;11.10
15079;BMP180;6932;51.438;5.470;2023-02-01T04:16:53;101567.00;;;11.20
15079;BMP180;6932;51.438;5.470;2023-02-01T04:19:18;101547.00;;;11.20
15079;BMP180;6932;51.438;5.470;2023-02-01T04:21:44;101547.00;;;11.20
15079;BMP180;6932;51.438;5.470;2023-02-01T04:24:10;101529.00;;;11.20
15079;BMP180;6932;51.438;5.470;2023-02-01T04:26:36;101546.00;;;11.20
15079;BMP180;6932;51.438;5.470;2023-02-01T04:29:02;101557.00;;;11.20
15079;BMP180;6932;51.438;5.470;2023-02-01T04:31:28;101562.00;;;11.20
15079;BMP180;6932;51.438;5.470;2023-02-01T04:33:55;101557.00;;;11.20
15079;BMP180;6932;51.438;5.470;2023-02-01T04:36:23;101558.00;;;11.20
15079;BMP180;6932;51.438;5.470;2023-02-01T04:38:50;101559.00;;;11.20
15079;BMP180;6932;51.438;5.470;2023-02-01T04:41:16;101566.00;;;11.20
15079;BMP180;6932;51.438;5.470;2023-02-01T04:43:49;101564.00;;;11.20
15079;BMP180;6932;51.438;5.470;2023-02-01T04:46:16;101568.00;;;11.20
15079;BMP180;6932;51.438;5.470;2023-02-01T04:48:42;101562.00;;;11.20
15079;BMP180;6932;51.438;5.470;2023-02-01T04:51:08;101568.00;;;11.20
15079;BMP180;6932;51.438;5.470;2023-02-01T04:53:35;101569.00;;;11.20
15079;BMP180;6932;51.438;5.470;2023-02-01T04:56:02;101562.00;;;11.20
15079;BMP180;6932;51.438;5.470;2023-02-01T04:58:27;101571.00;;;11.10
15079;BMP180;6932;51.438;5.470;2023-02-01T05:00:53;101572.00;;;11.10
15079;BMP180;6932;51.438;5.470;2023-02-01T05:03:19;101581.00;;;11.10
15079;BMP180;6932;51.438;5.470;2023-02-01T05:05:48;101581.00;;;11.10
15079;BMP180;6932;51.438;5.470;2023-02-01T05:08:14;101582.00;;;11.10
15079;BMP180;6932;51.438;5.470;2023-02-01T05:10:40;101581.00;;;11.10
15079;BMP180;6932;51.438;5.470;2023-02-01T05:13:05;101593.00;;;11.00
15079;BMP180;6932;51.438;5.470;2023-02-01T05:15:51;101599.00;;;11.00
15079;BMP180;6932;51.438;5.470;2023-02-01T05:18:16;101586.00;;;11.00
15079;BMP180;6932;51.438;5.470;2023-02-01T05:20:42;101579.00;;;11.00
15079;BMP180;6932;51.438;5.470;2023-02-01T05:23:08;101580.00;;;10.90
15079;BMP180;6932;51.438;5.470;2023-02-01T05:25:34;101586.00;;;10.90
15079;BMP180;6932;51.438;5.470;2023-02-01T05:27:59;101575.00;;;10.90
15079;BMP180;6932;51.438;5.470;2023-02-01T05:30:25;101568.00;;;10.90
15079;BMP180;6932;51.438;5.470;2023-02-01T05:32:52;101560.00;;;10.90
15079;BMP180;6932;51.438;5.470;2023-02-01T05:35:19;101567.00;;;10.90
15079;BMP180;6932;51.438;5.470;2023-02-01T05:37:44;101564.00;;;10.90
15079;BMP180;6932;51.438;5.470;2023-02-01T05:40:11;101558.00;;;10.90
15079;BMP180;6932;51.438;5.470;2023-02-01T05:42:37;101551.00;;;10.90
15079;BMP180;6932;51.438;5.470;2023-02-01T05:45:03;101561.00;;;10.90
15079;BMP180;6932;51.438;5.470;2023-02-01T05:47:31;101575.00;;;10.90
15079;BMP180;6932;51.438;5.470;2023-02-01T05:49:56;101578.00;;;11.00
15079;BMP180;6932;51.438;5.470;2023-02-01T05:52:22;101574.00;;;11.00
15079;BMP180;6932;51.438;5.470;2023-02-01T05:54:48;101575.00;;;11.00
15079;BMP180;6932;51.438;5.470;2023-02-01T05:57:15;101575.00;;;11.00
15079;BMP180;6932;51.438;5.470;2023-02-01T05:59:41;101573.00;;;11.00
15079;BMP180;6932;51.438;5.470;2023-02-01T06:02:11;101578.00;;;11.00
15079;BMP180;6932;51.438;5.470;2023-02-01T06:04:37;101572.00;;;11.10
15079;BMP180;6932;51.438;5.470;2023-02-01T06:07:05;101575.00;;;11.10
15079;BMP180;6932;51.438;5.470;2023-02-01T06:09:34;101582.00;;;11.10
15079;BMP180;6932;51.438;5.470;2023-02-01T06:12:00;101560.00;;;11.10
15079;BMP180;6932;51.438;5.470;2023-02-01T06:14:27;101567.00;;;11.10
15079;BMP180;6932;51.438;5.470;2023-02-01T06:16:56;101574.00;;;11.10
15079;BMP180;6932;51.438;5.470;2023-02-01T06:19:23;101570.00;;;11.20
15079;BMP180;6932;51.438;5.470;2023-02-01T06:21:49;101578.00;;;11.20
15079;BMP180;6932;51.438;5.470;2023-02-01T06:24:15;101589.00;;;11.20
15079;BMP180;6932;51.438;5.470;2023-02-01T06:26:41;101591.00;;;11.20
15079;BMP180;6932;51.438;5.470;2023-02-01T06:29:09;101582.00;;;11.20
15079;BMP180;6932;51.438;5.470;2023-02-01T06:31:35;101579.00;;;11.20
15079;BMP180;6932;51.438;5.470;2023-02-01T06:34:01;101584.00;;;11.20
15079;BMP180;6932;51.438;5.470;2023-02-01T06:36:29;101574.00;;;11.20
15079;BMP180;6932;51.438;5.470;2023-02-01T06:38:56;101589.00;;;11.20
15079;BMP180;6932;51.438;5.470;2023-02-01T06:41:23;101582.00;;;11.20
15079;BMP180;6932;51.438;5.470;2023-02-01T06:43:49;101584.00;;;11.20
15079;BMP180;6932;51.438;5.470;2023-02-01T06:46:15;101586.00;;;11.20
15079;BMP180;6932;51.438;5.470;2023-02-01T06:48:41;101586.00;;;11.20
15079;BMP180;6932;51.438;5.470;2023-02-01T06:51:18;101584.00;;;11.20
15079;BMP180;6932;51.438;5.470;2023-02-01T06:53:45;101597.00;;;11.20
15079;BMP180;6932;51.438;5.470;2023-02-01T06:56:10;101593.00;;;11.20
15079;BMP180;6932;51.438;5.470;2023-02-01T06:58:36;101591.00;;;11.20
15079;BMP180;6932;51.438;5.470;2023-02-01T07:01:06;101591.00;;;11.20
15079;BMP180;6932;51.438;5.470;2023-02-01T07:03:32;101606.00;;;11.20
15079;BMP180;6932;51.438;5.470;2023-02-01T07:05:58;101605.00;;;11.20
15079;BMP180;6932;51.438;5.470;2023-02-01T07:08:31;101601.00;;;11.20
15079;BMP180;6932;51.438;5.470;2023-02-01T07:11:03;101594.00;;;11.20
15079;BMP180;6932;51.438;5.470;2023-02-01T07:13:29;101594.00;;;11.20
15079;BMP180;6932;51.438;5.470;2023-02-01T07:16:01;101605.00;;;11.30
15079;BMP180;6932;51.438;5.470;2023-02-01T07:18:29;101602.00;;;11.30
15079;BMP180;6932;51.438;5.470;2023-02-01T07:20:55;101592.00;;;11.30
15079;BMP180;6932;51.438;5.470;2023-02-01T07:23:22;101589.00;;;11.30
15079;BMP180;6932;51.438;5.470;2023-02-01T07:25:48;101598.00;;;11.30
15079;BMP180;6932;51.438;5.470;2023-02-01T07:28:14;101594.00;;;11.30
15079;BMP180;6932;51.438;5.470;2023-02-01T07:30:40;101599.00;;;11.30
15079;BMP180;6932;51.438;5.470;2023-02-01T07:33:07;101595.00;;;11.30
15079;BMP180;6932;51.438;5.470;2023-02-01T07:35:33;101598.00;;;11.30
15079;BMP180;6932;51.438;5.470;2023-02-01T07:37:58;101607.00;;;11.30
15079;BMP180;6932;51.438;5.470;2023-02-01T07:40:24;101614.00;;;11.30
15079;BMP180;6932;51.438;5.470;2023-02-01T07:42:55;101608.00;;;11.30
15079;BMP180;6932;51.438;5.470;2023-02-01T07:45:22;101613.00;;;11.30
15079;BMP180;6932;51.438;5.470;2023-02-01T07:47:48;101604.00;;;11.30
15079;BMP180;6932;51.438;5.470;2023-02-01T07:50:14;101609.00;;;11.30
15079;BMP180;6932;51.438;5.470;2023-02-01T07:52:40;101618.00;;;11.30
15079;BMP180;6932;51.438;5.470;2023-02-01T07:55:07;101625.00;;;11.20
15079;BMP180;6932;51.438;5.470;2023-02-01T07:57:33;101615.00;;;11.20
15079;BMP180;6932;51.438;5.470;2023-02-01T07:59:58;101605.00;;;11.20
15079;BMP180;6932;51.438;5.470;2023-02-01T08:03:00;101605.00;;;11.20
15079;BMP180;6932;51.438;5.470;2023-02-01T08:05:27;101607.00;;;11.20
15079;BMP180;6932;51.438;5.470;2023-02-01T08:07:52;101614.00;;;11.20
15079;BMP180;6932;51.438;5.470;2023-02-01T08:10:19;101620.00;;;11.20
15079;BMP180;6932;51.438;5.470;2023-02-01T08:12:45;101631.00;;;11.20
15079;BMP180;6932;51.438;5.470;2023-02-01T08:15:17;101635.00;;;11.20
15079;BMP180;6932;51.438;5.470;2023-02-01T08:17:51;101640.00;;;11.30
15079;BMP180;6932;51.438;5.470;2023-02-01T08:20:18;101637.00;;;11.30
15079;BMP180;6932;51.438;5.470;2023-02-01T08:22:44;101647.00;;;11.40
15079;BMP180;6932;51.438;5.470;2023-02-01T08:25:10;101634.00;;;11.40
15079;BMP180;6932;51.438;5.470;2023-02-01T08:27:37;101631.00;;;11.50
15079;BMP180;6932;51.438;5.470;2023-02-01T08:30:05;101624.00;;;11.50
15079;BMP180;6932;51.438;5.470;2023-02-01T08:32:33;101633.00;;;11.60
15079;BMP180;6932;51.438;5.470;2023-02-01T08:34:59;101639.00;;;11.70
15079;BMP180;6932;51.438;5.470;2023-02-01T08:37:24;101629.00;;;11.70
15079;BMP180;6932;51.438;5.470;2023-02-01T08:39:50;101643.00;;;11.80
15079;BMP180;6932;51.438;5.470;2023-02-01T08:42:17;101650.00;;;11.90
15079;BMP180;6932;51.438;5.470;2023-02-01T08:45:03;101641.00;;;11.90
15079;BMP180;6932;51.438;5.470;2023-02-01T08:47:30;101644.00;;;12.00
15079;BMP180;6932;51.438;5.470;2023-02-01T08:49:56;101631.00;;;12.10
15079;BMP180;6932;51.438;5.470;2023-02-01T08:52:22;101637.00;;;12.10
15079;BMP180;6932;51.438;5.470;2023-02-01T08:54:48;101629.00;;;12.10
15079;BMP180;6932;51.438;5.470;2023-02-01T08:57:14;101635.00;;;12.10
15079;BMP180;6932;51.438;5.470;2023-02-01T08:59:40;101623.00;;;12.10
15079;BMP180;6932;51.438;5.470;2023-02-01T09:02:15;101623.00;;;12.10
15079;BMP180;6932;51.438;5.470;2023-02-01T09:04:42;101615.00;;;12.20
15079;BMP180;6932;51.438;5.470;2023-02-01T09:07:11;101621.00;;;12.20
15079;BMP180;6932;51.438;5.470;2023-02-01T09:09:39;101613.00;;;12.20
15079;BMP180;6932;51.438;5.470;2023-02-01T09:12:05;101614.00;;;12.20
15079;BMP180;6932;51.438;5.470;2023-02-01T09:14:31;101605.00;;;12.20
15079;BMP180;6932;51.438;5.470;2023-02-01T09:16:57;101609.00;;;12.30
15079;BMP180;6932;51.438;5.470;2023-02-01T09:19:22;101595.00;;;12.30
15079;BMP180;6932;51.438;5.470;2023-02-01T09:21:48;101603.00;;;12.30
15079;BMP180;6932;51.438;5.470;2023-02-01T09:24:14;101585.00;;;12.40
15079;BMP180;6932;51.438;5.470;2023-02-01T09:26:40;101578.00;;;12.50
15079;BMP180;6932;51.438;5.470;2023-02-01T09:29:06;101587.00;;;12.60
15079;BMP180;6932;51.438;5.470;2023-02-01T09:31:39;101593.00;;;12.80
15079;BMP180;6932;51.438;5.470;2023-02-01T09:34:06;101586.00;;;12.90
15079;BMP180;6932;51.438;5.470;2023-02-01T09:36:32;101586.00;;;13.00
15079;BMP180;6932;51.438;5.470;2023-02-01T09:38:59;101588.00;;;13.10
15079;BMP180;6932;51.438;5.470;2023-02-01T09:45:34;101597.00;;;13.20
15079;BMP180;6932;51.438;5.470;2023-02-01T09:47:34;101601.00;;;13.30
15079;BMP180;6932;51.438;5.470;2023-02-01T09:50:18;101587.00;;;13.30
15079;BMP180;6932;51.438;5.470;2023-02-01T09:53:15;101612.00;;;13.30
15079;BMP180;6932;51.438;5.470;2023-02-01T09:55:49;101593.00;;;13.30
15079;BMP180;6932;51.438;5.470;2023-02-01T09:58:47;101595.00;;;13.30
15079;BMP180;6932;51.438;5.470;2023-02-01T10:01:24;101602.00;;;13.30
15079;BMP180;6932;51.438;5.470;2023-02-01T10:04:05;101580.00;;;13.30
15079;BMP180;6932;51.438;5.470;2023-02-01T10:07:21;101587.00;;;13.30
15079;BMP180;6932;51.438;5.470;2023-02-01T10:10:09;101574.00;;;13.40
15079;BMP180;6932;51.438;5.470;2023-02-01T10:21:04;101595.00;;;13.70
15079;BMP180;6932;51.438;5.470;2023-02-01T10:23:45;101595.00;;;13.80
15079;BMP180;6932;51.438;5.470;2023-02-01T10:28:58;101517.00;;;14.00
15079;BMP180;6932;51.438;5.470;2023-02-01T10:31:37;101528.00;;;13.90
15079;BMP180;6932;51.438;5.470;2023-02-01T10:37:13;101538.00;;;13.60
15079;BMP180;6932;51.438;5.470;2023-02-01T10:39:48;101614.00;;;13.40
15079;BMP180;6932;51.438;5.470;2023-02-01T10:42:26;101621.00;;;13.40
15079;BMP180;6932;51.438;5.470;2023-02-01T10:44:59;101614.00;;;13.40
15079;BMP180;6932;51.438;5.470;2023-02-01T10:47:27;101641.00;;;13.50
15079;BMP180;6932;51.438;5.470;2023-02-01T10:52:39;101603.00;;;13.60
15079;BMP180;6932;51.438;5.470;2023-02-01T10:55:41;101615.00;;;13.70
15079;BMP180;6932;51.438;5.470;2023-02-01T10:58:32;101615.00;;;13.70
15079;BMP180;6932;51.438;5.470;2023-02-01T11:01:25;101595.00;;;13.70
15079;BMP180;6932;51.438;5.470;2023-02-01T11:04:01;101600.00;;;13.80
15079;BMP180;6932;51.438;5.470;2023-02-01T11:06:43;101595.00;;;13.80
15079;BMP180;6932;51.438;5.470;2023-02-01T11:09:20;101585.00;;;13.80
15079;BMP180;6932;51.438;5.470;2023-02-01T11:14:41;101581.00;;;13.80
15079;BMP180;6932;51.438;5.470;2023-02-01T11:19:56;101562.00;;;13.90
15079;BMP180;6932;51.438;5.470;2023-02-01T11:22:25;101549.00;;;13.90
15079;BMP180;6932;51.438;5.470;2023-02-01T11:24:53;101564.00;;;13.90
15079;BMP180;6932;51.438;5.470;2023-02-01T11:27:21;101549.00;;;13.90
15079;BMP180;6932;51.438;5.470;2023-02-01T11:29:53;101562.00;;;13.90
15079;BMP180;6932;51.438;5.470;2023-02-01T11:32:23;101572.00;;;13.90
15079;BMP180;6932;51.438;5.470;2023-02-01T11:35:02;101571.00;;;13.90
15079;BMP180;6932;51.438;5.470;2023-02-01T11:37:37;101565.00;;;13.80
15079;BMP180;6932;51.438;5.470;2023-02-01T11:40:35;101547.00;;;13.80
15079;BMP180;6932;51.438;5.470;2023-02-01T11:43:26;101555.00;;;13.80
15079;BMP180;6932;51.438;5.470;2023-02-01T11:46:02;101570.00;;;13.80
15079;BMP180;6932;51.438;5.470;2023-02-01T11:48:31;101556.00;;;13.80
15079;BMP180;6932;51.438;5.470;2023-02-01T11:54:23;101532.00;;;13.80
15079;BMP180;6932;51.438;5.470;2023-02-01T12:00:05;101531.00;;;13.80
15079;BMP180;6932;51.438;5.470;2023-02-01T12:11:41;101523.00;;;13.80
15079;BMP180;6932;51.438;5.470;2023-02-01T12:14:27;101540.00;;;13.80
15079;BMP180;6932;51.438;5.470;2023-02-01T12:26:33;101522.00;;;13.80
15079;BMP180;6932;51.438;5.470;2023-02-01T12:29:25;101536.00;;;13.80
15079;BMP180;6932;51.438;5.470;2023-02-01T12:32:07;101531.00;;;13.80
15079;BMP180;6932;51.438;5.470;2023-02-01T12:37:59;101512.00;;;13.80
15079;BMP180;6932;51.438;5.470;2023-02-01T12:46:03;101518.00;;;13.80
15079;BMP180;6932;51.438;5.470;2023-02-01T12:48:59;101511.00;;;13.80
15079;BMP180;6932;51.438;5.470;2023-02-01T12:51:34;101549.00;;;13.80
15079;BMP180;6932;51.438;5.470;2023-02-01T12:54:42;101533.00;;;13.80
15079;BMP180;6932;51.438;5.470;2023-02-01T12:57:40;101532.00;;;13.80
15079;BMP180;6932;51.438;5.470;2023-02-01T13:00:32;101531.00;;;13.80
15079;BMP180;6932;51.438;5.470;2023-02-01T13:06:45;101524.00;;;13.80
15079;BMP180;6932;51.438;5.470;2023-02-01T13:09:26;101513.00;;;13.80
15079;BMP180;6932;51.438;5.470;2023-02-01T13:11:58;101517.00;;;13.90
15079;BMP180;6932;51.438;5.470;2023-02-01T13:17:22;101519.00;;;13.90
15079;BMP180;6932;51.438;5.470;2023-02-01T13:20:05;101510.00;;;13.90
15079;BMP180;6932;51.438;5.470;2023-02-01T13:22:40;101494.00;;;13.90
15079;BMP180;6932;51.438;5.470;2023-02-01T13:25:29;101511.00;;;13.90
15079;BMP180;6932;51.438;5.470;2023-02-01T13:28:10;101504.00;;;13.90
15079;BMP180;6932;51.438;5.470;2023-02-01T13:41:29;101518.00;;;13.90
15079;BMP180;6932;51.438;5.470;2023-02-01T13:44:19;101526.00;;;13.90
15079;BMP180;6932;51.438;5.470;2023-02-01T13:46:50;101518.00;;;13.90
15079;BMP180;6932;51.438;5.470;2023-02-01T13:49:22;101509.00;;;14.00
15079;BMP180;6932;51.438;5.470;2023-02-01T13:51:53;101523.00;;;14.00
15079;BMP180;6932;51.438;5.470;2023-02-01T13:54:39;101511.00;;;14.00
15079;BMP180;6932;51.438;5.470;2023-02-01T13:57:36;101511.00;;;14.00
15079;BMP180;6932;51.438;5.470;2023-02-01T14:03:16;101530.00;;;14.00
15079;BMP180;6932;51.438;5.470;2023-02-01T14:08:44;101530.00;;;14.00
15079;BMP180;6932;51.438;5.470;2023-02-01T14:19:32;101540.00;;;14.00
15079;BMP180;6932;51.438;5.470;2023-02-01T14:22:01;101550.00;;;14.00
15079;BMP180;6932;51.438;5.470;2023-02-01T14:24:52;101546.00;;;14.00
15079;BMP180;6932;51.438;5.470;2023-02-01T14:27:35;101545.00;;;14.00
15079;BMP180;6932;51.438;5.470;2023-02-01T14:30:07;101556.00;;;14.00
15079;BMP180;6932;51.438;5.470;2023-02-01T14:32:41;101550.00;;;14.00
15079;BMP180;6932;51.438;5.470;2023-02-01T14:35:19;101545.00;;;14.00
15079;BMP180;6932;51.438;5.470;2023-02-01T14:37:51;101540.00;;;14.00
15079;BMP180;6932;51.438;5.470;2023-02-01T14:40:27;101547.00;;;14.00
15079;BMP180;6932;51.438;5.470;2023-02-01T14:42:54;101543.00;;;14.00
15079;BMP180;6932;51.438;5.470;2023-02-01T15:01:35;101546.00;;;13.90
15079;BMP180;6932;51.438;5.470;2023-02-01T15:06:49;101561.00;;;13.90
15079;BMP180;6932;51.438;5.470;2023-02-01T15:09:27;101548.00;;;13.90
15079;BMP180;6932;51.438;5.470;2023-02-01T15:12:17;101565.00;;;13.90
15079;BMP180;6932;51.438;5.470;2023-02-01T15:15:23;101559.00;;;13.80
15079;BMP180;6932;51.438;5.470;2023-02-01T15:17:59;101554.00;;;13.90
15079;BMP180;6932;51.438;5.470;2023-02-01T15:20:29;101564.00;;;13.90
15079;BMP180;6932;51.438;5.470;2023-02-01T15:23:02;101569.00;;;13.90
15079;BMP180;6932;51.438;5.470;2023-02-01T15:25:34;101560.00;;;13.90
15079;BMP180;6932;51.438;5.470;2023-02-01T15:28:05;101571.00;;;13.80
15079;BMP180;6932;51.438;5.470;2023-02-01T15:30:35;101578.00;;;13.90
15079;BMP180;6932;51.438;5.470;2023-02-01T15:35:45;101582.00;;;13.90
15079;BMP180;6932;51.438;5.470;2023-02-01T15:38:42;101576.00;;;13.90
15079;BMP180;6932;51.438;5.470;2023-02-01T15:41:17;101584.00;;;13.90
15079;BMP180;6932;51.438;5.470;2023-02-01T15:44:16;101588.00;;;13.90
15079;BMP180;6932;51.438;5.470;2023-02-01T15:46:47;101593.00;;;13.90
15079;BMP180;6932;51.438;5.470;2023-02-01T15:49:29;101586.00;;;13.90
15079;BMP180;6932;51.438;5.470;2023-02-01T15:51:59;101578.00;;;13.90
15079;BMP180;6932;51.438;5.470;2023-02-01T15:54:37;101568.00;;;13.90
15079;BMP180;6932;51.438;5.470;2023-02-01T15:57:06;101568.00;;;13.90
15079;BMP180;6932;51.438;5.470;2023-02-01T15:59:43;101567.00;;;13.90
15079;BMP180;6932;51.438;5.470;2023-02-01T16:04:54;101562.00;;;13.80
15079;BMP180;6932;51.438;5.470;2023-02-01T16:07:30;101572.00;;;13.80
15079;BMP180;6932;51.438;5.470;2023-02-01T16:10:00;101577.00;;;13.80
15079;BMP180;6932;51.438;5.470;2023-02-01T16:15:05;101580.00;;;13.80
15079;BMP180;6932;51.438;5.470;2023-02-01T16:17:31;101578.00;;;13.80
15079;BMP180;6932;51.438;5.470;2023-02-01T16:19:57;101576.00;;;13.80
15079;BMP180;6932;51.438;5.470;2023-02-01T16:22:23;101590.00;;;13.80
15079;BMP180;6932;51.438;5.470;2023-02-01T16:24:49;101590.00;;;13.70
15079;BMP180;6932;51.438;5.470;2023-02-01T16:27:15;101600.00;;;13.70
15079;BMP180;6932;51.438;5.470;2023-02-01T16:29:41;101600.00;;;13.80
15079;BMP180;6932;51.438;5.470;2023-02-01T16:32:17;101598.00;;;13.70
15079;BMP180;6932;51.438;5.470;2023-02-01T16:34:45;101595.00;;;13.70
15079;BMP180;6932;51.438;5.470;2023-02-01T16:37:23;101602.00;;;13.70
15079;BMP180;6932;51.438;5.470;2023-02-01T16:39:50;101608.00;;;13.70
15079;BMP180;6932;51.438;5.470;2023-02-01T16:42:16;101617.00;;;13.70
15079;BMP180;6932;51.438;5.470;2023-02-01T16:44:43;101607.00;;;13.70
15079;BMP180;6932;51.438;5.470;2023-02-01T16:47:17;101609.00;;;13.70
15079;BMP180;6932;51.438;5.470;2023-02-01T16:49:44;101627.00;;;13.70
15079;BMP180;6932;51.438;5.470;2023-02-01T16:52:19;101621.00;;;13.70
15079;BMP180;6932;51.438;5.470;2023-02-01T16:54:45;101619.00;;;13.70
15079;BMP180;6932;51.438;5.470;2023-02-01T16:57:13;101628.00;;;13.70
15079;BMP180;6932;51.438;5.470;2023-02-01T16:59:41;101586.00;;;13.70
15079;BMP180;6932;51.438;5.470;2023-02-01T17:02:13;101604.00;;;13.70
15079;BMP180;6932;51.438;5.470;2023-02-01T17:04:40;101609.00;;;13.70
15079;BMP180;6932;51.438;5.470;2023-02-01T17:07:06;101622.00;;;13.70
15079;BMP180;6932;51.438;5.470;2023-02-01T17:09:38;101616.00;;;13.70
15079;BMP180;6932;51.438;5.470;2023-02-01T17:12:05;101622.00;;;13.70